Thursday, November 23, 2017, 4:29 AM EST
Back to Local

KACK, Nantucket Memorial Airport

Location: Nantucket, MA, United States Lat: 41.25
Local Time: 4:29 AM EST ( 9:29 GMT) Lon: -70.067
Time Zone: US/Eastern Elev: 49 ft

Show me the last for .
Show Decoded

2017-11-23 03:53 METAR KACK 230853Z AUTO 31009KT 10SM CLR 03/M02 A2998 RMK AO2 SLP150 T00331017
                 53010 TSNO =
2017-11-23 02:53 METAR KACK 230753Z AUTO 32012G22KT 10SM FEW029 04/M01 A2996 RMK AO2 SLP144
                 T00391011 TSNO =
2017-11-23 02:11 METAR KACK 230711Z AUTO 32015KT 10SM SCT029 04/M01 A2994 RMK AO2 T00391011 TSNO
                 =
2017-11-23 01:53 METAR KACK 230653Z AUTO 32015KT 10SM BKN029 04/M01 A2995 RMK AO2 PK WND
                 31026/0620 SLP140 T00391006 TSNO =
2017-11-23 01:39 METAR KACK 230639Z AUTO 32013G23KT 10SM SCT029 04/M01 A2994 RMK AO2 PK WND
                 31026/0620 T00391006 TSNO =
2017-11-23 00:53 METAR KACK 230553Z AUTO 32016G24KT 10SM OVC026 04/01 A2993 RMK AO2 SLP135
                 T00440006 10078 20044 51026 TSNO =
2017-11-22 23:53 METAR KACK 230453Z AUTO 32015G22KT 10SM BKN025 05/01 A2992 RMK AO2 PK WND
                 32032/0414 SLP130 T00500011 401390044 TSNO =
2017-11-22 22:53 METAR KACK 230353Z AUTO 32022G30KT 10SM FEW022 05/02 A2988 RMK AO2 PK WND
                 32032/0256 SLP119 T00500017 TSNO =
2017-11-22 21:53 METAR KACK 230253Z AUTO 33023G34KT 10SM FEW022 05/02 A2985 RMK AO2 PK WND
                 32034/0252 SLP108 T00500022 51027 TSNO =
2017-11-22 21:05 METAR KACK 230205Z AUTO 32023G31KT 10SM SCT023 06/03 A2984 RMK AO2 PK WND
                 32032/0155 T00560028 TSNO =
2017-11-22 20:53 METAR KACK 230153Z 32021G36KT 10SM BKN023 06/03 A2984 RMK AO2 PK WND 32037/0122
                 SLP104 T00610028 =
2017-11-22 20:12 METAR KACK 230112Z 32020G30KT 10SM SCT012 BKN022 07/05 A2980 RMK AO2 PK WND
                 32031/0100 T00720050 =
2017-11-22 19:53 METAR KACK 230053Z 32019G28KT 10SM SCT008 OVC014 07/07 A2980 RMK AO2 PK WND
                 32032/2357 SLP089 T00720067 =
2017-11-22 18:53 METAR KACK 222353Z 33023G30KT 5SM BR FEW008 BKN016 OVC023 08/07 A2977 RMK AO2 PK
                 WND 32035/2335 RAE2254B16E41 SLP082 P0001 60015 T00780072 10128 20078 53021 =
2017-11-22 18:45 METAR KACK 222345Z 33021G34KT 5SM BR FEW008 BKN019 OVC024 08/07 A2977 RMK AO2 PK
                 WND 32035/2335 RAE2254B16E41 P0001 T00780072 =
2017-11-22 17:53 METAR KACK 222253Z 33020G29KT 5SM -RA BR BKN007 OVC012 08/08 A2973 RMK AO2 PK
                 WND 33030/2239 CIG 002V009 SLP066 P0000 T00830083 =
2017-11-22 16:53 METAR KACK 222153Z 31007KT 3SM -RA BR BKN002 BKN029 OVC065 11/11 A2971 RMK AO2
                 RAE31B52 SLP062 P0001 T01060106 =
2017-11-22 15:53 METAR KACK 222053Z 34005KT 8SM -RA BKN004 BKN012 OVC060 12/12 A2971 RMK AO2
                 SLP061 P0000 60013 T01170117 56032 =
2017-11-22 14:53 METAR KACK 221953Z 05007KT 7SM -RA BR SCT002 BKN004 OVC055 12/12 A2973 RMK AO2
                 SLP066 P0008 T01220122 =
2017-11-22 14:00 METAR KACK 221900Z 01009KT 5SM RA BR SCT002 BKN004 12/12 A2975 RMK AO2 P0001
                 T01170117 =
2017-11-22 13:53 METAR KACK 221853Z 01008KT 5SM RA BR BKN006 BKN050 OVC075 12/12 A2976 RMK AO2
                 SLP078 P0005 T01170117 =
2017-11-22 12:53 METAR KACK 221753Z 32008KT 6SM -RA BR BKN006 BKN047 OVC070 13/13 A2981 RMK AO2
                 SLP093 P0006 60013 T01280128 10139 20122 58034 =
2017-11-22 12:30 METAR KACK 221730Z 20017G21KT 4SM RA BR FEW030 BKN060 OVC075 14/14 A2982 RMK AO2
                 P0005 T01390139 =
2017-11-22 12:27 METAR KACK 221727Z 20017G21KT 4SM RA BR BKN011 BKN050 OVC070 14/14 A2982 RMK AO2
                 P0005 T01390139 =
2017-11-22 11:53 METAR KACK 221653Z 19010KT 4SM RA BR FEW032 SCT050 OVC070 13/13 A2985 RMK AO2
                 SLP108 P0006 T01330133 =
2017-11-22 10:53 METAR KACK 221553Z 16013KT 7SM -RA FEW043 BKN070 OVC090 13/13 A2988 RMK AO2
                 RAE01B34 SLP116 P0001 T01280128 =
2017-11-22 09:53 METAR KACK 221453Z 16015KT 8SM -RA FEW046 SCT070 OVC085 13/13 A2991 RMK AO2
                 RAE22B49 SLP127 P0000 60000 T01280128 58022 =
2017-11-22 08:53 METAR KACK 221353Z 16014KT 8SM -RA FEW065 OVC085 13/12 A2994 RMK AO2 RAB33
                 SLP137 P0000 T01280122 =
2017-11-22 07:53 METAR KACK 221253Z 16014KT 10SM BKN110 13/12 A2996 RMK AO2 SLP144 T01330122 =
2017-11-22 06:53 METAR KACK 221153Z 16013KT 9SM OVC110 12/12 A2997 RMK AO2 SLP149 T01220122 10133
                 20122 58023 $ =
2017-11-22 05:53 METAR KACK 221053Z 16014KT 10SM CLR 12/12 A3000 RMK AO2 SLP157 T01220117 $ =
2017-11-22 04:53 METAR KACK 220953Z AUTO 17012KT 10SM CLR 13/12 A3002 RMK AO2 SLP165 T01280117
                 TSNO $ =

Support USWX by starting your Amazon purchase here.